sensor_id;sensor_type;location;lat;lon;timestamp;P1;durP1;ratioP1;P2;durP2;ratioP2
8656;SDS011;4366;50.764;7.184;2022-12-07T00:02:06;19.57;;;11.50;;
8656;SDS011;4366;50.764;7.184;2022-12-07T00:07:07;17.23;;;10.47;;
8656;SDS011;4366;50.764;7.184;2022-12-07T00:12:09;15.23;;;10.23;;
8656;SDS011;4366;50.764;7.184;2022-12-07T00:17:11;18.73;;;11.90;;
8656;SDS011;4366;50.764;7.184;2022-12-07T00:22:12;17.53;;;10.87;;
8656;SDS011;4366;50.764;7.184;2022-12-07T00:27:14;17.17;;;11.00;;
8656;SDS011;4366;50.764;7.184;2022-12-07T00:32:15;16.43;;;10.70;;
8656;SDS011;4366;50.764;7.184;2022-12-07T00:37:17;18.53;;;10.73;;
8656;SDS011;4366;50.764;7.184;2022-12-07T00:42:20;18.03;;;11.90;;
8656;SDS011;4366;50.764;7.184;2022-12-07T00:47:21;20.17;;;13.00;;
8656;SDS011;4366;50.764;7.184;2022-12-07T00:52:23;17.50;;;11.93;;
8656;SDS011;4366;50.764;7.184;2022-12-07T00:57:25;18.20;;;13.03;;
8656;SDS011;4366;50.764;7.184;2022-12-07T01:02:26;17.60;;;13.20;;
8656;SDS011;4366;50.764;7.184;2022-12-07T01:07:28;22.13;;;13.60;;
8656;SDS011;4366;50.764;7.184;2022-12-07T01:12:31;22.17;;;13.57;;
8656;SDS011;4366;50.764;7.184;2022-12-07T01:17:32;18.87;;;13.43;;
8656;SDS011;4366;50.764;7.184;2022-12-07T01:22:37;21.67;;;14.47;;
8656;SDS011;4366;50.764;7.184;2022-12-07T01:27:42;21.37;;;14.33;;
8656;SDS011;4366;50.764;7.184;2022-12-07T01:32:44;19.87;;;13.53;;
8656;SDS011;4366;50.764;7.184;2022-12-07T01:37:45;24.50;;;14.60;;
8656;SDS011;4366;50.764;7.184;2022-12-07T01:42:47;20.40;;;13.73;;
8656;SDS011;4366;50.764;7.184;2022-12-07T01:47:57;22.37;;;15.10;;
8656;SDS011;4366;50.764;7.184;2022-12-07T01:53:00;20.83;;;13.87;;
8656;SDS011;4366;50.764;7.184;2022-12-07T01:58:03;20.93;;;13.83;;
8656;SDS011;4366;50.764;7.184;2022-12-07T02:03:17;21.13;;;14.50;;
8656;SDS011;4366;50.764;7.184;2022-12-07T02:08:26;19.87;;;13.90;;
8656;SDS011;4366;50.764;7.184;2022-12-07T02:13:29;21.20;;;14.70;;
8656;SDS011;4366;50.764;7.184;2022-12-07T02:24:03;20.87;;;14.03;;
8656;SDS011;4366;50.764;7.184;2022-12-07T02:29:17;19.83;;;13.83;;
8656;SDS011;4366;50.764;7.184;2022-12-07T02:39:33;20.77;;;14.50;;
8656;SDS011;4366;50.764;7.184;2022-12-07T02:44:41;20.97;;;14.57;;
8656;SDS011;4366;50.764;7.184;2022-12-07T02:49:43;21.10;;;15.27;;
8656;SDS011;4366;50.764;7.184;2022-12-07T02:54:47;20.83;;;14.83;;
8656;SDS011;4366;50.764;7.184;2022-12-07T03:15:14;20.37;;;14.43;;
8656;SDS011;4366;50.764;7.184;2022-12-07T03:20:20;24.70;;;14.77;;
8656;SDS011;4366;50.764;7.184;2022-12-07T03:25:23;24.13;;;14.83;;
8656;SDS011;4366;50.764;7.184;2022-12-07T03:30:27;21.77;;;14.60;;
8656;SDS011;4366;50.764;7.184;2022-12-07T03:35:33;22.20;;;14.73;;
8656;SDS011;4366;50.764;7.184;2022-12-07T03:40:43;20.33;;;13.80;;
8656;SDS011;4366;50.764;7.184;2022-12-07T03:51:54;19.93;;;13.00;;
8656;SDS011;4366;50.764;7.184;2022-12-07T03:56:50;22.27;;;14.30;;
8656;SDS011;4366;50.764;7.184;2022-12-07T04:01:54;20.63;;;13.90;;
8656;SDS011;4366;50.764;7.184;2022-12-07T04:06:56;20.20;;;13.97;;
8656;SDS011;4366;50.764;7.184;2022-12-07T04:11:58;21.83;;;14.63;;
8656;SDS011;4366;50.764;7.184;2022-12-07T04:17:00;18.67;;;13.17;;
8656;SDS011;4366;50.764;7.184;2022-12-07T04:22:02;23.30;;;14.43;;
8656;SDS011;4366;50.764;7.184;2022-12-07T04:27:05;23.87;;;14.40;;
8656;SDS011;4366;50.764;7.184;2022-12-07T04:32:07;21.67;;;14.07;;
8656;SDS011;4366;50.764;7.184;2022-12-07T04:37:09;18.57;;;12.90;;
8656;SDS011;4366;50.764;7.184;2022-12-07T04:42:10;23.30;;;13.97;;
8656;SDS011;4366;50.764;7.184;2022-12-07T04:47:13;21.77;;;14.17;;
8656;SDS011;4366;50.764;7.184;2022-12-07T04:52:15;21.83;;;15.07;;
8656;SDS011;4366;50.764;7.184;2022-12-07T04:57:16;22.67;;;14.83;;
8656;SDS011;4366;50.764;7.184;2022-12-07T05:02:18;20.17;;;13.40;;
8656;SDS011;4366;50.764;7.184;2022-12-07T05:07:20;20.87;;;14.13;;
8656;SDS011;4366;50.764;7.184;2022-12-07T05:12:21;22.63;;;14.90;;
8656;SDS011;4366;50.764;7.184;2022-12-07T05:17:23;19.43;;;13.90;;
8656;SDS011;4366;50.764;7.184;2022-12-07T05:22:25;21.73;;;14.27;;
8656;SDS011;4366;50.764;7.184;2022-12-07T05:27:29;19.77;;;13.50;;
8656;SDS011;4366;50.764;7.184;2022-12-07T05:32:31;22.47;;;13.03;;
8656;SDS011;4366;50.764;7.184;2022-12-07T05:37:32;21.43;;;14.20;;
8656;SDS011;4366;50.764;7.184;2022-12-07T05:42:34;23.10;;;14.30;;
8656;SDS011;4366;50.764;7.184;2022-12-07T05:47:36;20.73;;;13.93;;
8656;SDS011;4366;50.764;7.184;2022-12-07T05:52:39;22.00;;;13.47;;
8656;SDS011;4366;50.764;7.184;2022-12-07T05:57:40;19.27;;;13.90;;
8656;SDS011;4366;50.764;7.184;2022-12-07T06:03:02;21.97;;;14.43;;
8656;SDS011;4366;50.764;7.184;2022-12-07T06:08:04;19.07;;;12.93;;
8656;SDS011;4366;50.764;7.184;2022-12-07T06:13:06;22.73;;;13.27;;
8656;SDS011;4366;50.764;7.184;2022-12-07T06:18:08;20.63;;;13.50;;
8656;SDS011;4366;50.764;7.184;2022-12-07T06:23:10;18.73;;;13.00;;
8656;SDS011;4366;50.764;7.184;2022-12-07T06:28:12;18.67;;;12.13;;
8656;SDS011;4366;50.764;7.184;2022-12-07T06:33:13;20.47;;;12.83;;
8656;SDS011;4366;50.764;7.184;2022-12-07T06:38:15;17.13;;;12.20;;
8656;SDS011;4366;50.764;7.184;2022-12-07T06:43:17;21.67;;;12.47;;
8656;SDS011;4366;50.764;7.184;2022-12-07T06:48:18;21.73;;;13.20;;
8656;SDS011;4366;50.764;7.184;2022-12-07T06:53:20;17.70;;;12.70;;
8656;SDS011;4366;50.764;7.184;2022-12-07T06:58:26;22.37;;;13.60;;
8656;SDS011;4366;50.764;7.184;2022-12-07T07:03:28;23.30;;;13.77;;
8656;SDS011;4366;50.764;7.184;2022-12-07T07:08:29;20.77;;;13.33;;
8656;SDS011;4366;50.764;7.184;2022-12-07T07:13:32;20.63;;;13.50;;
8656;SDS011;4366;50.764;7.184;2022-12-07T07:18:34;16.63;;;12.77;;
8656;SDS011;4366;50.764;7.184;2022-12-07T07:23:36;19.37;;;12.47;;
8656;SDS011;4366;50.764;7.184;2022-12-07T07:28:37;17.47;;;12.40;;
8656;SDS011;4366;50.764;7.184;2022-12-07T07:33:44;18.80;;;11.73;;
8656;SDS011;4366;50.764;7.184;2022-12-07T07:38:47;17.10;;;10.83;;
8656;SDS011;4366;50.764;7.184;2022-12-07T07:43:48;21.37;;;12.73;;
8656;SDS011;4366;50.764;7.184;2022-12-07T07:48:50;17.57;;;11.50;;
8656;SDS011;4366;50.764;7.184;2022-12-07T07:53:52;18.17;;;12.10;;
8656;SDS011;4366;50.764;7.184;2022-12-07T07:58:54;20.57;;;12.27;;
8656;SDS011;4366;50.764;7.184;2022-12-07T08:03:56;15.87;;;10.77;;
8656;SDS011;4366;50.764;7.184;2022-12-07T08:08:58;14.90;;;10.50;;
8656;SDS011;4366;50.764;7.184;2022-12-07T08:14:00;14.13;;;10.93;;
8656;SDS011;4366;50.764;7.184;2022-12-07T08:19:02;17.83;;;11.17;;
8656;SDS011;4366;50.764;7.184;2022-12-07T08:24:05;18.43;;;11.33;;
8656;SDS011;4366;50.764;7.184;2022-12-07T08:29:07;18.47;;;12.00;;
8656;SDS011;4366;50.764;7.184;2022-12-07T08:34:13;19.73;;;12.73;;
8656;SDS011;4366;50.764;7.184;2022-12-07T08:39:14;16.77;;;10.97;;
8656;SDS011;4366;50.764;7.184;2022-12-07T08:44:32;16.10;;;10.77;;
8656;SDS011;4366;50.764;7.184;2022-12-07T08:49:36;15.17;;;10.73;;
8656;SDS011;4366;50.764;7.184;2022-12-07T08:54:40;22.57;;;12.67;;
8656;SDS011;4366;50.764;7.184;2022-12-07T08:59:42;15.63;;;11.43;;
8656;SDS011;4366;50.764;7.184;2022-12-07T09:04:43;16.17;;;11.30;;
8656;SDS011;4366;50.764;7.184;2022-12-07T09:09:45;13.50;;;10.70;;
8656;SDS011;4366;50.764;7.184;2022-12-07T09:14:48;18.03;;;11.73;;
8656;SDS011;4366;50.764;7.184;2022-12-07T09:19:49;16.10;;;11.30;;
8656;SDS011;4366;50.764;7.184;2022-12-07T09:24:52;13.93;;;10.27;;
8656;SDS011;4366;50.764;7.184;2022-12-07T09:29:53;14.40;;;10.50;;
8656;SDS011;4366;50.764;7.184;2022-12-07T09:34:55;17.33;;;10.37;;
8656;SDS011;4366;50.764;7.184;2022-12-07T09:39:57;17.53;;;10.60;;
8656;SDS011;4366;50.764;7.184;2022-12-07T09:44:58;19.20;;;10.37;;
8656;SDS011;4366;50.764;7.184;2022-12-07T09:50:03;17.83;;;9.97;;
8656;SDS011;4366;50.764;7.184;2022-12-07T09:55:10;15.77;;;9.57;;
8656;SDS011;4366;50.764;7.184;2022-12-07T10:00:17;13.87;;;10.07;;
8656;SDS011;4366;50.764;7.184;2022-12-07T10:05:36;18.37;;;10.40;;
8656;SDS011;4366;50.764;7.184;2022-12-07T10:10:50;14.87;;;10.80;;
8656;SDS011;4366;50.764;7.184;2022-12-07T10:15:55;13.87;;;9.50;;
8656;SDS011;4366;50.764;7.184;2022-12-07T10:26:26;15.57;;;9.67;;
8656;SDS011;4366;50.764;7.184;2022-12-07T10:31:30;13.23;;;9.77;;
8656;SDS011;4366;50.764;7.184;2022-12-07T10:36:36;12.87;;;9.47;;
8656;SDS011;4366;50.764;7.184;2022-12-07T10:41:58;12.60;;;8.57;;
8656;SDS011;4366;50.764;7.184;2022-12-07T11:03:26;10.97;;;7.93;;
8656;SDS011;4366;50.764;7.184;2022-12-07T11:24:20;10.90;;;7.30;;
8656;SDS011;4366;50.764;7.184;2022-12-07T11:29:32;9.90;;;6.27;;
8656;SDS011;4366;50.764;7.184;2022-12-07T11:40:05;8.87;;;5.83;;
8656;SDS011;4366;50.764;7.184;2022-12-07T11:45:19;10.33;;;5.63;;
8656;SDS011;4366;50.764;7.184;2022-12-07T12:06:17;7.33;;;4.80;;
8656;SDS011;4366;50.764;7.184;2022-12-07T12:22:10;5.20;;;4.17;;
8656;SDS011;4366;50.764;7.184;2022-12-07T12:27:19;3.63;;;2.40;;
8656;SDS011;4366;50.764;7.184;2022-12-07T12:37:42;5.37;;;3.20;;
8656;SDS011;4366;50.764;7.184;2022-12-07T12:47:52;6.37;;;4.33;;
8656;SDS011;4366;50.764;7.184;2022-12-07T12:53:05;10.47;;;4.33;;
8656;SDS011;4366;50.764;7.184;2022-12-07T13:03:29;7.40;;;4.90;;
8656;SDS011;4366;50.764;7.184;2022-12-07T13:08:32;10.80;;;5.00;;
8656;SDS011;4366;50.764;7.184;2022-12-07T13:13:35;6.93;;;4.87;;
8656;SDS011;4366;50.764;7.184;2022-12-07T13:18:37;9.70;;;5.03;;
8656;SDS011;4366;50.764;7.184;2022-12-07T13:28:51;8.47;;;5.20;;
8656;SDS011;4366;50.764;7.184;2022-12-07T13:39:44;7.27;;;5.03;;
8656;SDS011;4366;50.764;7.184;2022-12-07T13:44:47;7.53;;;5.70;;
8656;SDS011;4366;50.764;7.184;2022-12-07T13:49:50;10.00;;;6.90;;
8656;SDS011;4366;50.764;7.184;2022-12-07T13:59:59;7.97;;;5.53;;
8656;SDS011;4366;50.764;7.184;2022-12-07T14:05:14;7.90;;;5.83;;
8656;SDS011;4366;50.764;7.184;2022-12-07T14:15:38;8.97;;;5.83;;
8656;SDS011;4366;50.764;7.184;2022-12-07T14:20:40;10.23;;;5.83;;
8656;SDS011;4366;50.764;7.184;2022-12-07T14:25:48;8.23;;;5.73;;
8656;SDS011;4366;50.764;7.184;2022-12-07T14:30:52;11.37;;;5.93;;
8656;SDS011;4366;50.764;7.184;2022-12-07T14:35:54;5.80;;;5.00;;
8656;SDS011;4366;50.764;7.184;2022-12-07T14:40:56;7.60;;;4.70;;
8656;SDS011;4366;50.764;7.184;2022-12-07T14:46:18;4.83;;;4.37;;
8656;SDS011;4366;50.764;7.184;2022-12-07T14:51:20;4.70;;;4.30;;
8656;SDS011;4366;50.764;7.184;2022-12-07T14:56:41;4.93;;;3.73;;
8656;SDS011;4366;50.764;7.184;2022-12-07T15:01:44;3.97;;;3.67;;
8656;SDS011;4366;50.764;7.184;2022-12-07T15:06:55;4.67;;;3.63;;
8656;SDS011;4366;50.764;7.184;2022-12-07T15:12:01;4.20;;;3.80;;
8656;SDS011;4366;50.764;7.184;2022-12-07T15:17:03;4.20;;;3.80;;
8656;SDS011;4366;50.764;7.184;2022-12-07T15:22:16;4.47;;;3.80;;
8656;SDS011;4366;50.764;7.184;2022-12-07T15:27:17;4.30;;;3.73;;
8656;SDS011;4366;50.764;7.184;2022-12-07T15:32:19;5.27;;;4.77;;
8656;SDS011;4366;50.764;7.184;2022-12-07T15:37:20;5.20;;;4.70;;
8656;SDS011;4366;50.764;7.184;2022-12-07T15:42:22;5.57;;;4.53;;
8656;SDS011;4366;50.764;7.184;2022-12-07T15:47:24;5.37;;;4.83;;
8656;SDS011;4366;50.764;7.184;2022-12-07T15:52:25;5.63;;;4.40;;
8656;SDS011;4366;50.764;7.184;2022-12-07T15:57:27;6.70;;;4.70;;
8656;SDS011;4366;50.764;7.184;2022-12-07T16:02:29;8.17;;;6.00;;
8656;SDS011;4366;50.764;7.184;2022-12-07T16:07:36;6.03;;;5.43;;
8656;SDS011;4366;50.764;7.184;2022-12-07T16:12:38;7.37;;;5.37;;
8656;SDS011;4366;50.764;7.184;2022-12-07T16:17:40;7.97;;;5.67;;
8656;SDS011;4366;50.764;7.184;2022-12-07T16:22:41;10.40;;;6.27;;
8656;SDS011;4366;50.764;7.184;2022-12-07T16:27:43;6.97;;;5.70;;
8656;SDS011;4366;50.764;7.184;2022-12-07T16:32:45;6.77;;;5.87;;
8656;SDS011;4366;50.764;7.184;2022-12-07T16:37:46;7.27;;;6.20;;
8656;SDS011;4366;50.764;7.184;2022-12-07T16:42:48;10.10;;;6.43;;
8656;SDS011;4366;50.764;7.184;2022-12-07T16:47:50;11.47;;;7.03;;
8656;SDS011;4366;50.764;7.184;2022-12-07T16:52:51;8.47;;;6.67;;
8656;SDS011;4366;50.764;7.184;2022-12-07T16:57:53;9.17;;;6.93;;
8656;SDS011;4366;50.764;7.184;2022-12-07T17:02:55;11.47;;;6.90;;
8656;SDS011;4366;50.764;7.184;2022-12-07T17:07:56;7.33;;;5.73;;
8656;SDS011;4366;50.764;7.184;2022-12-07T17:12:58;4.40;;;4.00;;
8656;SDS011;4366;50.764;7.184;2022-12-07T17:18:00;4.53;;;3.73;;
8656;SDS011;4366;50.764;7.184;2022-12-07T17:23:01;3.90;;;3.60;;
8656;SDS011;4366;50.764;7.184;2022-12-07T17:28:05;5.47;;;4.37;;
8656;SDS011;4366;50.764;7.184;2022-12-07T17:33:07;6.80;;;5.67;;
8656;SDS011;4366;50.764;7.184;2022-12-07T17:38:10;6.43;;;5.83;;
8656;SDS011;4366;50.764;7.184;2022-12-07T17:43:12;8.57;;;6.87;;
8656;SDS011;4366;50.764;7.184;2022-12-07T17:48:14;10.60;;;7.10;;
8656;SDS011;4366;50.764;7.184;2022-12-07T17:53:15;10.63;;;7.50;;
8656;SDS011;4366;50.764;7.184;2022-12-07T17:58:17;11.13;;;8.67;;
8656;SDS011;4366;50.764;7.184;2022-12-07T18:03:19;11.13;;;8.33;;
8656;SDS011;4366;50.764;7.184;2022-12-07T18:08:20;12.10;;;9.67;;
8656;SDS011;4366;50.764;7.184;2022-12-07T18:13:22;11.13;;;8.13;;
8656;SDS011;4366;50.764;7.184;2022-12-07T18:18:36;9.97;;;8.60;;
8656;SDS011;4366;50.764;7.184;2022-12-07T18:23:37;11.83;;;8.50;;
8656;SDS011;4366;50.764;7.184;2022-12-07T18:28:40;11.37;;;8.53;;
8656;SDS011;4366;50.764;7.184;2022-12-07T18:33:42;11.80;;;8.53;;
8656;SDS011;4366;50.764;7.184;2022-12-07T18:38:45;10.23;;;8.17;;
8656;SDS011;4366;50.764;7.184;2022-12-07T18:43:46;16.00;;;9.13;;
8656;SDS011;4366;50.764;7.184;2022-12-07T18:48:48;11.83;;;8.27;;
8656;SDS011;4366;50.764;7.184;2022-12-07T18:53:50;11.93;;;8.17;;
8656;SDS011;4366;50.764;7.184;2022-12-07T18:58:54;11.03;;;8.33;;
8656;SDS011;4366;50.764;7.184;2022-12-07T19:04:18;10.47;;;8.03;;
8656;SDS011;4366;50.764;7.184;2022-12-07T19:09:20;11.33;;;8.23;;
8656;SDS011;4366;50.764;7.184;2022-12-07T19:25:16;9.90;;;7.80;;
8656;SDS011;4366;50.764;7.184;2022-12-07T19:30:18;11.13;;;7.60;;
8656;SDS011;4366;50.764;7.184;2022-12-07T19:35:20;11.37;;;7.97;;
8656;SDS011;4366;50.764;7.184;2022-12-07T19:40:21;8.97;;;7.57;;
8656;SDS011;4366;50.764;7.184;2022-12-07T19:45:23;13.70;;;7.90;;
8656;SDS011;4366;50.764;7.184;2022-12-07T19:50:25;9.23;;;7.73;;
8656;SDS011;4366;50.764;7.184;2022-12-07T19:55:26;9.63;;;8.00;;
8656;SDS011;4366;50.764;7.184;2022-12-07T20:00:28;8.43;;;7.50;;
8656;SDS011;4366;50.764;7.184;2022-12-07T20:05:30;9.33;;;8.33;;
8656;SDS011;4366;50.764;7.184;2022-12-07T20:10:32;10.17;;;8.00;;
8656;SDS011;4366;50.764;7.184;2022-12-07T20:15:36;10.43;;;7.43;;
8656;SDS011;4366;50.764;7.184;2022-12-07T20:20:41;10.20;;;7.70;;
8656;SDS011;4366;50.764;7.184;2022-12-07T20:25:54;8.90;;;7.63;;
8656;SDS011;4366;50.764;7.184;2022-12-07T20:30:56;8.05;;;6.75;;
8656;SDS011;4366;50.764;7.184;2022-12-07T20:36:00;8.23;;;7.17;;
8656;SDS011;4366;50.764;7.184;2022-12-07T20:41:05;8.73;;;7.40;;
8656;SDS011;4366;50.764;7.184;2022-12-07T20:46:07;11.80;;;8.37;;
8656;SDS011;4366;50.764;7.184;2022-12-07T20:51:12;8.83;;;7.20;;
8656;SDS011;4366;50.764;7.184;2022-12-07T20:56:31;9.63;;;7.80;;
8656;SDS011;4366;50.764;7.184;2022-12-07T21:01:35;11.20;;;7.83;;
8656;SDS011;4366;50.764;7.184;2022-12-07T21:06:37;9.43;;;7.93;;
8656;SDS011;4366;50.764;7.184;2022-12-07T21:11:39;12.23;;;8.07;;
8656;SDS011;4366;50.764;7.184;2022-12-07T21:16:41;8.47;;;7.43;;
8656;SDS011;4366;50.764;7.184;2022-12-07T21:21:43;11.80;;;7.97;;
8656;SDS011;4366;50.764;7.184;2022-12-07T21:26:45;10.13;;;7.57;;
8656;SDS011;4366;50.764;7.184;2022-12-07T21:31:46;10.87;;;8.20;;
8656;SDS011;4366;50.764;7.184;2022-12-07T21:36:50;8.93;;;7.33;;
8656;SDS011;4366;50.764;7.184;2022-12-07T21:41:52;9.57;;;7.43;;
8656;SDS011;4366;50.764;7.184;2022-12-07T21:46:53;9.80;;;7.00;;
8656;SDS011;4366;50.764;7.184;2022-12-07T21:51:56;9.40;;;7.80;;
8656;SDS011;4366;50.764;7.184;2022-12-07T21:56:57;9.47;;;7.27;;
8656;SDS011;4366;50.764;7.184;2022-12-07T22:01:59;8.97;;;7.43;;
8656;SDS011;4366;50.764;7.184;2022-12-07T22:07:01;10.37;;;7.20;;
8656;SDS011;4366;50.764;7.184;2022-12-07T22:12:02;9.47;;;7.27;;
8656;SDS011;4366;50.764;7.184;2022-12-07T22:17:04;9.00;;;7.67;;
8656;SDS011;4366;50.764;7.184;2022-12-07T22:22:06;10.07;;;7.80;;
8656;SDS011;4366;50.764;7.184;2022-12-07T22:27:08;9.13;;;6.93;;
8656;SDS011;4366;50.764;7.184;2022-12-07T22:32:10;9.83;;;6.97;;
8656;SDS011;4366;50.764;7.184;2022-12-07T22:37:31;9.77;;;7.63;;
8656;SDS011;4366;50.764;7.184;2022-12-07T22:42:36;8.80;;;7.23;;
8656;SDS011;4366;50.764;7.184;2022-12-07T22:47:38;7.57;;;6.73;;
8656;SDS011;4366;50.764;7.184;2022-12-07T22:52:40;8.53;;;7.43;;
8656;SDS011;4366;50.764;7.184;2022-12-07T22:57:42;9.07;;;7.37;;
8656;SDS011;4366;50.764;7.184;2022-12-07T23:02:43;8.90;;;7.20;;
8656;SDS011;4366;50.764;7.184;2022-12-07T23:07:45;9.17;;;7.13;;
8656;SDS011;4366;50.764;7.184;2022-12-07T23:12:47;9.17;;;7.23;;
8656;SDS011;4366;50.764;7.184;2022-12-07T23:18:08;12.17;;;7.87;;
8656;SDS011;4366;50.764;7.184;2022-12-07T23:23:09;8.30;;;6.97;;
8656;SDS011;4366;50.764;7.184;2022-12-07T23:28:11;11.13;;;8.10;;
8656;SDS011;4366;50.764;7.184;2022-12-07T23:33:13;8.87;;;7.50;;
8656;SDS011;4366;50.764;7.184;2022-12-07T23:38:15;9.50;;;7.30;;
8656;SDS011;4366;50.764;7.184;2022-12-07T23:43:16;9.63;;;7.30;;
8656;SDS011;4366;50.764;7.184;2022-12-07T23:48:18;10.67;;;7.87;;
8656;SDS011;4366;50.764;7.184;2022-12-07T23:53:20;7.83;;;7.03;;
8656;SDS011;4366;50.764;7.184;2022-12-07T23:58:22;8.53;;;6.53;;
